Time;durP1;ratioP1;P1;durP2;ratioP2;P2;SDS_P1;SDS_P2;PMS_P1;PMS_P2;Temp;Humidity;BMP_temperature;BMP_pressure;BME280_temperature;BME280_humidity;BME280_pressure;Samples;Min_cycle;Max_cycle;Signal;HPM_P1;HPM_P2
2023/01/17 00:00:27;;;;;;;;;;;;;;;5.63;87.29;98825.75;5090126;28;19919;-42
2023/01/17 00:02:52;;;;;;;;;;;;;;;5.99;86.42;98827.41;5090543;28;20482;-41
2023/01/17 00:10:46;;;;;;;;;;;;;;;5.84;85.62;98820.38;5091337;28;19930;-43
2023/01/17 00:13:11;;;;;;;;;;;;;;;5.69;85.97;98819.69;5090803;28;20358;-37
2023/01/17 00:15:38;;;;;;;;;;;;;;;5.58;86.70;98821.06;5091223;28;19919;-42
2023/01/17 00:18:03;;;;;;;;;;;;;;;5.88;85.29;98818.19;5091244;28;20418;-42
2023/01/17 00:26:02;;;;;;;;;;;;;;;6.04;85.42;98801.25;5090787;28;19943;-36
2023/01/17 01:35:07;;;;;;;;;;;;;;;4.81;92.19;98745.44;5094859;28;20140;-43
2023/01/17 01:37:32;;;;;;;;;;;;;;;4.76;91.65;98735.47;5094252;28;19953;-43
2023/01/17 01:39:57;;;;;;;;;;;;;;;4.75;91.35;98727.75;5093954;28;19923;-43
2023/01/17 01:42:23;;;;;;;;;;;;;;;4.85;91.41;98720.31;5094236;28;20014;-37
2023/01/17 01:44:49;;;;;;;;;;;;;;;4.92;90.64;98715.91;5094358;28;19912;-36
2023/01/17 01:47:27;;;;;;;;;;;;;;;4.84;90.81;98718.69;5094551;28;19912;-36
2023/01/17 01:49:52;;;;;;;;;;;;;;;4.75;91.13;98727.75;5093723;28;19912;-36
2023/01/17 01:52:19;;;;;;;;;;;;;;;4.61;91.13;98724.19;5093653;28;19931;-36
2023/01/17 01:54:49;;;;;;;;;;;;;;;4.69;91.57;98709.06;5093783;28;20003;-37
2023/01/17 01:57:17;;;;;;;;;;;;;;;4.84;90.11;98718.69;5093974;28;20005;-37
2023/01/17 01:59:45;;;;;;;;;;;;;;;4.66;90.32;98730.53;5093435;28;19916;-37
2023/01/17 02:02:11;;;;;;;;;;;;;;;4.48;91.50;98735.44;5093421;28;19908;-37
2023/01/17 02:04:36;;;;;;;;;;;;;;;4.43;92.03;98737.81;5093956;28;20288;-37
2023/01/17 02:07:09;;;;;;;;;;;;;;;4.68;91.95;98733.78;5093339;28;19916;-38
2023/01/17 02:09:34;;;;;;;;;;;;;;;4.79;91.44;98736.91;5093768;28;19969;-38
2023/01/17 02:12:01;;;;;;;;;;;;;;;4.71;91.55;98745.75;5093606;28;19912;-37
2023/01/17 02:14:26;;;;;;;;;;;;;;;4.70;91.67;98744.13;5093663;28;20105;-37
2023/01/17 02:17:03;;;;;;;;;;;;;;;4.78;91.56;98736.09;5093494;28;19991;-37
2023/01/17 02:19:47;;;;;;;;;;;;;;;4.78;90.80;98746.66;5093203;28;19924;-37
2023/01/17 02:22:33;;;;;;;;;;;;;;;4.95;90.64;98744.53;5092994;28;20058;-37
2023/01/17 02:25:07;;;;;;;;;;;;;;;5.06;90.80;98725.56;5092648;28;19912;-38
2023/01/17 02:27:33;;;;;;;;;;;;;;;4.94;90.21;98742.09;5092798;28;19916;-36
2023/01/17 02:29:58;;;;;;;;;;;;;;;4.89;91.79;98747.94;5092750;28;20398;-39
2023/01/17 02:32:36;;;;;;;;;;;;;;;4.96;90.73;98737.44;5092647;28;20022;-36
2023/01/17 02:35:05;;;;;;;;;;;;;;;4.99;91.82;98723.84;5093174;28;20375;-36
2023/01/17 02:37:40;;;;;;;;;;;;;;;4.89;92.09;98708.38;5092883;28;19919;-36
2023/01/17 02:40:25;;;;;;;;;;;;;;;4.90;92.07;98708.19;5093023;28;19912;-36
2023/01/17 02:42:56;;;;;;;;;;;;;;;4.93;92.06;98725.47;5092623;28;19919;-36
2023/01/17 02:45:22;;;;;;;;;;;;;;;5.19;90.98;98705.53;5093187;28;19991;-37
2023/01/17 02:47:47;;;;;;;;;;;;;;;5.12;90.57;98731.06;5092901;28;20014;-37
2023/01/17 02:50:15;;;;;;;;;;;;;;;5.08;90.78;98714.78;5093047;28;19969;-37
2023/01/17 02:52:49;;;;;;;;;;;;;;;5.09;90.80;98695.34;5092696;28;19920;-37
2023/01/17 02:55:17;;;;;;;;;;;;;;;5.06;91.04;98691.28;5093079;28;20009;-37
2023/01/17 02:58:01;;;;;;;;;;;;;;;4.98;91.66;98699.31;5092569;28;20349;-37
2023/01/17 03:00:35;;;;;;;;;;;;;;;5.02;91.95;98705.84;5092954;28;20011;-37
2023/01/17 03:03:19;;;;;;;;;;;;;;;5.15;92.13;98706.94;5092316;28;19919;-37
2023/01/17 03:05:51;;;;;;;;;;;;;;;5.27;91.06;98702.75;5092363;28;19923;-37
2023/01/17 03:08:16;;;;;;;;;;;;;;;5.13;89.95;98695.78;5091954;28;19912;-37
2023/01/17 03:10:43;;;;;;;;;;;;;;;5.10;90.80;98686.41;5092591;28;20002;-37
2023/01/17 03:13:08;;;;;;;;;;;;;;;4.90;91.45;98681.03;5092541;28;19924;-37
2023/01/17 03:15:34;;;;;;;;;;;;;;;4.83;93.78;98667.78;5092380;28;19969;-36
2023/01/17 03:18:02;;;;;;;;;;;;;;;5.06;91.62;98669.34;5092599;28;19965;-36
2023/01/17 03:20:27;;;;;;;;;;;;;;;4.88;92.01;98673.28;5092056;28;19924;-36
2023/01/17 03:22:53;;;;;;;;;;;;;;;4.90;91.57;98667.84;5092424;28;19961;-36
2023/01/17 03:25:18;;;;;;;;;;;;;;;4.93;91.74;98654.28;5091612;28;20366;-36
2023/01/17 03:27:43;;;;;;;;;;;;;;;5.20;90.54;98643.88;5092446;28;19916;-36
2023/01/17 03:30:09;;;;;;;;;;;;;;;5.27;90.70;98649.97;5091780;28;19951;-36
2023/01/17 03:32:34;;;;;;;;;;;;;;;5.24;91.23;98645.91;5098872;28;19963;-36
2023/01/17 03:34:59;;;;;;;;;;;;;;;5.05;90.63;98642.16;5092261;28;19994;-37
2023/01/17 03:37:25;;;;;;;;;;;;;;;5.08;90.49;98654.16;5076327;28;19924;-37
2023/01/17 03:39:50;;;;;;;;;;;;;;;4.89;89.88;98653.84;5090232;28;19916;-37
2023/01/17 03:42:15;;;;;;;;;;;;;;;4.96;89.33;98643.34;5089066;28;19912;-37
2023/01/17 03:44:41;;;;;;;;;;;;;;;4.91;90.42;98645.72;5088050;28;19919;-37
2023/01/17 03:47:10;;;;;;;;;;;;;;;4.73;89.79;98638.31;5089257;28;20072;-37
2023/01/17 03:49:37;;;;;;;;;;;;;;;4.92;91.88;98659.75;5081966;28;19928;-42
2023/01/17 03:52:03;;;;;;;;;;;;;;;4.84;90.64;98644.88;5092520;28;19920;-36
2023/01/17 03:54:28;;;;;;;;;;;;;;;4.84;91.36;98640.41;5084473;28;19920;-36
2023/01/17 03:56:53;;;;;;;;;;;;;;;4.72;90.73;98628.78;5089900;28;19920;-37
2023/01/17 03:59:19;;;;;;;;;;;;;;;4.58;91.75;98625.25;5071857;28;19912;-37
2023/01/17 04:01:44;;;;;;;;;;;;;;;4.87;91.03;98629.50;5075291;28;19969;-37
2023/01/17 04:04:09;;;;;;;;;;;;;;;4.74;90.66;98652.31;5091580;28;19915;-37
2023/01/17 04:06:35;;;;;;;;;;;;;;;4.75;91.17;98620.50;5091354;28;19958;-37
2023/01/17 04:09:00;;;;;;;;;;;;;;;5.07;90.19;98636.72;5091761;28;20340;-37
2023/01/17 04:11:25;;;;;;;;;;;;;;;4.96;90.73;98661.78;5091582;28;19928;-42
2023/01/17 04:13:50;;;;;;;;;;;;;;;4.61;91.33;98619.59;5091728;28;19966;-42
2023/01/17 04:16:17;;;;;;;;;;;;;;;4.78;91.41;98630.66;5091452;28;19919;-42
2023/01/17 04:18:42;;;;;;;;;;;;;;;4.66;92.43;98626.91;5090961;28;20038;-41
2023/01/17 04:21:08;;;;;;;;;;;;;;;4.83;92.18;98635.34;5090897;28;20305;-42
2023/01/17 04:23:33;;;;;;;;;;;;;;;5.03;92.22;98615.19;5091124;28;20339;-42
2023/01/17 04:25:59;;;;;;;;;;;;;;;5.13;90.68;98614.81;5091099;28;20340;-43
2023/01/17 04:28:24;;;;;;;;;;;;;;;4.97;91.47;98608.06;5090819;28;19979;-42
2023/01/17 04:30:49;;;;;;;;;;;;;;;5.06;90.90;98620.06;5090208;28;19931;-41
2023/01/17 04:33:15;;;;;;;;;;;;;;;4.97;92.01;98637.06;5092420;28;19969;-42
2023/01/17 04:35:40;;;;;;;;;;;;;;;5.04;91.41;98619.44;5091500;28;20007;-42
2023/01/17 04:38:05;;;;;;;;;;;;;;;4.82;92.93;98631.91;5092687;28;20364;-42
2023/01/17 04:40:30;;;;;;;;;;;;;;;4.87;92.58;98636.56;5094523;28;19919;-42
2023/01/17 04:42:56;;;;;;;;;;;;;;;5.01;91.90;98626.94;5094461;28;20031;-42
2023/01/17 04:45:22;;;;;;;;;;;;;;;5.05;91.09;98618.44;5095378;28;19923;-42
2023/01/17 04:47:47;;;;;;;;;;;;;;;5.00;91.30;98618.19;5094593;28;19920;-42
2023/01/17 04:50:12;;;;;;;;;;;;;;;5.11;90.83;98587.84;5093566;28;20300;-42
2023/01/17 04:52:38;;;;;;;;;;;;;;;4.84;92.11;98587.69;5093773;28;19967;-42
2023/01/17 04:55:04;;;;;;;;;;;;;;;4.94;91.61;98591.81;5092088;28;19912;-42
2023/01/17 04:57:29;;;;;;;;;;;;;;;4.93;92.13;98608.63;5093287;28;19919;-41
2023/01/17 04:59:54;;;;;;;;;;;;;;;4.83;91.87;98612.41;5093821;28;20006;-41
2023/01/17 05:02:20;;;;;;;;;;;;;;;4.61;92.46;98622.22;5093413;28;19912;-43
2023/01/17 05:04:45;;;;;;;;;;;;;;;4.61;94.04;98629.34;5094463;28;20273;-43
2023/01/17 05:07:10;;;;;;;;;;;;;;;4.54;94.28;98618.72;5093882;28;19912;-42
2023/01/17 05:09:35;;;;;;;;;;;;;;;4.68;93.58;98611.72;5093799;28;20356;-42
2023/01/17 05:12:01;;;;;;;;;;;;;;;4.54;93.96;98613.47;5094119;28;19919;-42
2023/01/17 05:14:26;;;;;;;;;;;;;;;4.69;93.67;98634.44;5089130;28;20026;-41
2023/01/17 05:16:55;;;;;;;;;;;;;;;4.90;92.95;98647.56;5081027;28;20012;-42
2023/01/17 05:19:21;;;;;;;;;;;;;;;4.61;94.34;98626.69;5093746;28;19924;-43
2023/01/17 05:21:46;;;;;;;;;;;;;;;5.34;93.13;98629.72;5094202;28;19923;-43
2023/01/17 05:24:11;;;;;;;;;;;;;;;7.37;100.00;98624.09;5093922;28;20308;-42
2023/01/17 05:26:37;;;;;;;;;;;;;;;8.76;99.96;98644.63;5093860;28;19912;-43
2023/01/17 05:29:02;;;;;;;;;;;;;;;9.28;94.78;98645.09;5093647;28;19912;-42
2023/01/17 05:31:27;;;;;;;;;;;;;;;10.12;90.61;98645.22;5093776;28;20343;-44
2023/01/17 05:33:52;;;;;;;;;;;;;;;10.36;80.44;98627.53;5093765;28;20003;-42
2023/01/17 05:36:18;;;;;;;;;;;;;;;10.44;78.16;98642.34;5093529;28;19916;-43
2023/01/17 05:38:43;;;;;;;;;;;;;;;11.07;79.13;98659.47;5093721;28;19959;-42
2023/01/17 05:41:08;;;;;;;;;;;;;;;10.89;69.50;98646.28;5093798;28;19912;-42
2023/01/17 05:43:34;;;;;;;;;;;;;;;8.90;71.78;98656.72;5092997;28;19912;-43
2023/01/17 05:45:59;;;;;;;;;;;;;;;8.14;77.28;98639.97;5093176;28;19951;-42
2023/01/17 05:48:24;;;;;;;;;;;;;;;8.72;79.33;98676.06;5092250;28;19912;-42
2023/01/17 05:50:51;;;;;;;;;;;;;;;8.52;77.81;98662.97;5091427;28;19919;-42
2023/01/17 05:53:16;;;;;;;;;;;;;;;8.23;75.64;98657.25;5077511;28;20014;-42
2023/01/17 05:55:41;;;;;;;;;;;;;;;8.00;77.83;98647.19;5088648;28;19912;-42
2023/01/17 05:58:11;;;;;;;;;;;;;;;8.37;76.23;98650.00;5093287;28;19912;-43
2023/01/17 06:00:36;;;;;;;;;;;;;;;8.71;74.99;98653.22;5092852;28;20394;-42
2023/01/17 06:03:02;;;;;;;;;;;;;;;8.39;75.81;98649.78;5092752;28;19912;-42
2023/01/17 06:05:28;;;;;;;;;;;;;;;8.31;77.02;98677.38;5092831;28;20356;-41
2023/01/17 06:07:53;;;;;;;;;;;;;;;7.72;78.33;98679.34;5093064;28;19927;-42
2023/01/17 06:10:19;;;;;;;;;;;;;;;8.04;77.49;98655.53;5092976;28;19916;-44
2023/01/17 06:12:45;;;;;;;;;;;;;;;8.29;77.57;98668.81;5091771;28;20460;-42
2023/01/17 06:15:12;;;;;;;;;;;;;;;7.68;78.06;98658.78;5087448;28;19955;-41
2023/01/17 06:17:37;;;;;;;;;;;;;;;8.11;78.54;98658.13;5092215;28;19916;-43
2023/01/17 06:20:04;;;;;;;;;;;;;;;8.05;76.99;98678.34;5092592;28;19993;-42
2023/01/17 06:22:30;;;;;;;;;;;;;;;7.30;79.83;98702.69;5092227;28;20202;-41
2023/01/17 06:24:55;;;;;;;;;;;;;;;6.34;86.11;98695.22;5092907;28;19920;-42
2023/01/17 06:27:20;;;;;;;;;;;;;;;6.01;88.68;98714.47;5092859;28;19912;-42
2023/01/17 06:29:46;;;;;;;;;;;;;;;5.88;89.54;98684.34;5092585;28;20364;-42
2023/01/17 06:32:12;;;;;;;;;;;;;;;5.92;90.09;98691.84;5092065;28;20002;-42
2023/01/17 06:34:38;;;;;;;;;;;;;;;6.16;90.19;98706.38;5091740;28;19955;-42
2023/01/17 06:37:03;;;;;;;;;;;;;;;6.92;87.16;98689.34;5091858;28;20025;-42
2023/01/17 06:39:28;;;;;;;;;;;;;;;6.57;86.92;98687.72;5092619;28;19912;-42
2023/01/17 06:41:54;;;;;;;;;;;;;;;6.12;87.31;98676.91;5091801;28;19916;-42
2023/01/17 06:44:19;;;;;;;;;;;;;;;6.14;88.73;98672.22;5091994;28;19912;-42
2023/01/17 06:46:46;;;;;;;;;;;;;;;6.07;88.30;98688.09;5091660;28;19938;-42
2023/01/17 06:49:11;;;;;;;;;;;;;;;6.26;90.68;98661.88;5091801;28;19924;-43
2023/01/17 06:51:36;;;;;;;;;;;;;;;6.58;88.52;98670.03;5091676;28;20319;-42
2023/01/17 06:54:02;;;;;;;;;;;;;;;6.29;88.39;98656.19;5091490;28;20001;-42
2023/01/17 06:56:29;;;;;;;;;;;;;;;6.18;88.92;98641.75;5091656;28;19920;-42
2023/01/17 06:58:54;;;;;;;;;;;;;;;6.01;89.01;98656.34;5091798;28;19938;-42
2023/01/17 07:01:19;;;;;;;;;;;;;;;5.97;90.34;98647.22;5091333;28;20361;-42
2023/01/17 07:03:45;;;;;;;;;;;;;;;6.37;89.47;98663.13;5091865;28;19912;-42
2023/01/17 07:06:10;;;;;;;;;;;;;;;6.48;87.35;98633.44;5091871;28;19916;-42
2023/01/17 07:08:35;;;;;;;;;;;;;;;6.30;89.33;98646.44;5091590;28;19976;-42
2023/01/17 07:11:02;;;;;;;;;;;;;;;6.19;88.41;98659.25;5091611;28;19963;-42
2023/01/17 07:13:28;;;;;;;;;;;;;;;6.14;90.29;98643.16;5091310;28;19939;-42
2023/01/17 07:15:53;;;;;;;;;;;;;;;6.23;90.00;98649.09;5086872;28;19913;-36
2023/01/17 07:18:22;;;;;;;;;;;;;;;6.88;88.46;98633.38;5091934;28;20468;-36
2023/01/17 07:20:47;;;;;;;;;;;;;;;7.05;86.36;98647.78;5091796;28;20358;-36
2023/01/17 07:23:12;;;;;;;;;;;;;;;6.58;87.91;98649.69;5090539;28;20416;-36
2023/01/17 07:25:38;;;;;;;;;;;;;;;6.62;87.42;98669.41;5103273;28;19916;-36
2023/01/17 07:28:03;;;;;;;;;;;;;;;6.51;86.83;98664.75;5111895;28;19912;-37
2023/01/17 07:30:29;;;;;;;;;;;;;;;6.82;87.13;98682.63;5112086;28;19916;-36
2023/01/17 07:32:54;;;;;;;;;;;;;;;7.22;86.09;98663.25;5111516;28;20297;-37
2023/01/17 07:35:19;;;;;;;;;;;;;;;7.34;84.43;98687.22;5111843;28;20017;-37
2023/01/17 07:37:48;;;;;;;;;;;;;;;7.20;83.24;98676.66;5111848;28;20367;-36
2023/01/17 07:40:16;;;;;;;;;;;;;;;6.69;86.64;98674.72;5111675;28;20319;-36
2023/01/17 07:42:41;;;;;;;;;;;;;;;6.57;87.10;98648.06;5109625;28;20379;-36
2023/01/17 07:45:07;;;;;;;;;;;;;;;6.68;85.47;98657.19;5109826;28;19912;-36
2023/01/17 07:47:32;;;;;;;;;;;;;;;7.26;83.96;98650.41;5110075;28;20416;-36
2023/01/17 07:50:00;;;;;;;;;;;;;;;7.24;82.45;98659.34;5110334;28;20177;-38
2023/01/17 07:52:25;;;;;;;;;;;;;;;6.91;85.28;98690.34;5110740;28;20305;-37
2023/01/17 07:54:50;;;;;;;;;;;;;;;6.71;86.52;98683.25;5110467;27;19911;-38
2023/01/17 07:57:16;;;;;;;;;;;;;;;6.52;87.03;98673.50;5110885;28;19911;-37
2023/01/17 07:59:41;;;;;;;;;;;;;;;6.68;86.70;98680.19;5111091;28;20002;-37
2023/01/17 08:02:13;;;;;;;;;;;;;;;6.70;86.14;98660.47;5111212;28;19920;-37
2023/01/17 08:04:39;;;;;;;;;;;;;;;6.79;85.16;98661.88;5110917;28;20017;-35
2023/01/17 08:07:04;;;;;;;;;;;;;;;6.87;85.32;98660.03;5111250;28;20390;-37
2023/01/17 08:09:29;;;;;;;;;;;;;;;6.81;85.07;98632.59;5110843;28;19960;-36
2023/01/17 08:11:55;;;;;;;;;;;;;;;7.11;84.73;98682.38;5110819;28;19934;-37
2023/01/17 08:14:20;;;;;;;;;;;;;;;6.90;87.18;98684.25;5110915;28;19920;-36
2023/01/17 08:16:45;;;;;;;;;;;;;;;7.75;83.10;98686.88;5097869;28;19916;-36
2023/01/17 08:19:10;;;;;;;;;;;;;;;7.65;81.63;98689.13;5090479;28;20307;-36
2023/01/17 08:21:36;;;;;;;;;;;;;;;7.47;82.55;98692.47;5090728;28;20010;-37
2023/01/17 08:24:01;;;;;;;;;;;;;;;7.28;83.29;98693.34;5090391;28;19912;-36
2023/01/17 08:26:26;;;;;;;;;;;;;;;6.85;85.09;98707.84;5090628;28;20007;-36
2023/01/17 08:28:56;;;;;;;;;;;;;;;6.89;86.04;98706.41;5090364;28;19989;-37
2023/01/17 08:31:21;;;;;;;;;;;;;;;7.05;84.73;98699.91;5090569;28;19998;-36
2023/01/17 08:33:46;;;;;;;;;;;;;;;6.80;85.78;98689.97;5090589;28;20057;-36
2023/01/17 08:36:12;;;;;;;;;;;;;;;6.84;86.08;98672.66;5090758;28;19923;-38
2023/01/17 08:38:37;;;;;;;;;;;;;;;6.82;86.14;98669.41;5090398;28;20376;-36
2023/01/17 08:41:02;;;;;;;;;;;;;;;6.77;86.14;98663.91;5090407;28;20019;-36
2023/01/17 08:43:28;;;;;;;;;;;;;;;6.82;86.74;98665.97;5090564;28;19912;-36
2023/01/17 08:45:54;;;;;;;;;;;;;;;6.38;88.64;98670.84;5090146;28;19919;-37
2023/01/17 08:48:21;;;;;;;;;;;;;;;6.65;88.02;98657.63;5090321;28;19951;-36
2023/01/17 08:50:46;;;;;;;;;;;;;;;6.92;87.37;98655.75;5090323;28;19919;-36
2023/01/17 08:53:11;;;;;;;;;;;;;;;7.03;86.13;98675.50;5090334;28;19916;-35
2023/01/17 08:55:39;;;;;;;;;;;;;;;7.12;86.00;98676.91;5090459;28;19939;-37
2023/01/17 08:58:05;;;;;;;;;;;;;;;7.25;85.81;98681.31;5090159;28;20351;-37
2023/01/17 09:00:31;;;;;;;;;;;;;;;7.15;85.58;98667.72;5090521;28;19912;-36
2023/01/17 09:02:56;;;;;;;;;;;;;;;7.32;83.76;98673.38;5090586;28;19912;-37
2023/01/17 09:05:22;;;;;;;;;;;;;;;6.93;85.83;98665.34;5090499;28;19912;-36
2023/01/17 09:07:47;;;;;;;;;;;;;;;7.23;84.91;98672.78;5090656;28;19978;-37
2023/01/17 09:10:12;;;;;;;;;;;;;;;7.10;85.10;98670.16;5090296;28;20462;-37
2023/01/17 09:12:39;;;;;;;;;;;;;;;6.87;85.86;98675.91;5090066;28;19923;-37
2023/01/17 09:15:05;;;;;;;;;;;;;;;6.64;87.08;98667.41;5090371;28;19912;-36
2023/01/17 09:17:30;;;;;;;;;;;;;;;6.62;88.39;98665.97;5090332;28;20271;-36
2023/01/17 09:19:58;;;;;;;;;;;;;;;7.15;87.69;98680.94;5090175;28;19924;-37
2023/01/17 09:22:23;;;;;;;;;;;;;;;7.78;84.13;98680.31;5090012;28;19951;-36
2023/01/17 09:24:48;;;;;;;;;;;;;;;7.50;84.49;98701.81;5093413;28;19952;-36
2023/01/17 09:27:14;;;;;;;;;;;;;;;8.25;81.47;98698.63;5093792;28;19955;-37
2023/01/17 09:29:39;;;;;;;;;;;;;;;8.50;80.98;98699.50;5094159;28;19923;-37
2023/01/17 09:32:04;;;;;;;;;;;;;;;8.03;81.12;98686.53;5093835;28;19916;-36
2023/01/17 09:34:29;;;;;;;;;;;;;;;7.80;83.16;98702.91;5093735;28;19920;-37
2023/01/17 09:36:55;;;;;;;;;;;;;;;8.40;82.71;98701.78;5093760;28;19989;-36
2023/01/17 09:39:21;;;;;;;;;;;;;;;8.10;81.38;98699.72;5093775;28;20307;-37
2023/01/17 09:42:22;;;;;;;;;;;;;;;7.89;82.75;98705.34;5093519;28;20268;-37
2023/01/17 09:44:50;;;;;;;;;;;;;;;7.95;83.18;98688.59;5050892;28;19960;-36
2023/01/17 09:47:31;;;;;;;;;;;;;;;8.34;81.37;98687.56;5085514;28;19912;-36
2023/01/17 09:50:02;;;;;;;;;;;;;;;9.22;78.71;98683.16;5093380;28;19992;-36
2023/01/17 09:52:29;;;;;;;;;;;;;;;9.33;75.97;98678.97;5093307;28;19919;-37
2023/01/17 09:54:54;;;;;;;;;;;;;;;9.71;75.38;98665.44;5093696;28;19923;-36
2023/01/17 09:57:55;;;;;;;;;;;;;;;9.61;75.56;98675.75;5093372;28;20371;-37
2023/01/17 10:00:43;;;;;;;;;;;;;;;10.30;73.37;98663.00;5050617;28;19920;-37
2023/01/17 10:03:08;;;;;;;;;;;;;;;10.72;71.85;98643.53;5079052;28;20398;-36
2023/01/17 10:05:35;;;;;;;;;;;;;;;10.81;70.46;98638.66;5093535;28;19912;-36
2023/01/17 10:08:03;;;;;;;;;;;;;;;11.32;69.21;98648.53;5092805;28;20437;-37
2023/01/17 10:10:38;;;;;;;;;;;;;;;11.22;67.42;98648.34;5092598;28;19919;-36
2023/01/17 10:13:23;;;;;;;;;;;;;;;11.13;68.15;98652.41;5092819;28;20014;-37
2023/01/17 10:16:11;;;;;;;;;;;;;;;11.18;68.66;98651.72;5092795;28;20364;-38
2023/01/17 10:18:45;;;;;;;;;;;;;;;11.30;70.38;98634.66;5093002;28;20009;-37
2023/01/17 10:21:20;;;;;;;;;;;;;;;11.77;67.56;98638.25;5093610;28;19948;-37
2023/01/17 10:23:54;;;;;;;;;;;;;;;11.61;67.50;98635.25;5092778;28;19912;-36
2023/01/17 10:26:23;;;;;;;;;;;;;;;11.84;66.52;98623.72;5092410;28;19916;-37
2023/01/17 10:28:50;;;;;;;;;;;;;;;12.06;65.80;98629.19;5092358;28;19912;-37
2023/01/17 10:31:21;;;;;;;;;;;;;;;12.17;64.04;98645.38;5092391;28;20007;-37
2023/01/17 10:33:54;;;;;;;;;;;;;;;11.69;66.32;98634.91;5092386;28;19916;-37
2023/01/17 10:36:23;;;;;;;;;;;;;;;12.00;65.96;98630.16;5091786;28;19951;-36
2023/01/17 10:38:58;;;;;;;;;;;;;;;12.33;63.73;98620.56;5092386;28;20031;-36
2023/01/17 10:41:28;;;;;;;;;;;;;;;12.23;63.62;98628.41;5092103;28;20371;-35
2023/01/17 10:43:56;;;;;;;;;;;;;;;11.93;65.35;98616.16;5092365;28;19919;-36
2023/01/17 10:46:27;;;;;;;;;;;;;;;12.19;64.39;98611.28;5091981;28;20325;-36
2023/01/17 10:48:53;;;;;;;;;;;;;;;12.37;63.91;98608.34;5092038;28;20395;-38
2023/01/17 10:51:48;;;;;;;;;;;;;;;12.63;63.32;98614.09;5092465;28;20411;-36
2023/01/17 10:54:23;;;;;;;;;;;;;;;12.49;62.63;98621.66;5091759;28;19920;-38
2023/01/17 10:56:48;;;;;;;;;;;;;;;11.54;66.55;98623.94;5090335;28;19969;-37
2023/01/17 10:59:29;;;;;;;;;;;;;;;11.95;67.28;98629.25;5091813;28;19912;-37
2023/01/17 11:01:54;;;;;;;;;;;;;;;12.11;65.03;98629.28;5091958;28;19952;-37
2023/01/17 11:04:29;;;;;;;;;;;;;;;11.99;66.50;98623.19;5092075;28;20006;-36
2023/01/17 11:07:14;;;;;;;;;;;;;;;11.81;65.44;98608.19;5091367;28;19927;-36
2023/01/17 11:09:41;;;;;;;;;;;;;;;11.48;67.26;98611.56;5091461;28;19965;-37
2023/01/17 11:12:16;;;;;;;;;;;;;;;11.55;66.67;98610.38;5091761;28;20394;-37
2023/01/17 11:14:49;;;;;;;;;;;;;;;11.90;66.25;98625.47;5091467;28;19923;-37
2023/01/17 11:17:18;;;;;;;;;;;;;;;12.01;64.92;98614.97;5091458;28;19916;-35
2023/01/17 11:19:47;;;;;;;;;;;;;;;12.20;64.68;98602.22;5091337;28;20342;-37
2023/01/17 11:22:14;;;;;;;;;;;;;;;11.60;66.35;98591.03;5091242;28;19995;-37
2023/01/17 11:24:51;;;;;;;;;;;;;;;10.82;69.13;98590.53;5091735;28;20010;-36
2023/01/17 11:27:27;;;;;;;;;;;;;;;10.89;68.09;98585.88;5091480;28;19919;-37
2023/01/17 11:30:02;;;;;;;;;;;;;;;10.30;71.16;98569.94;5091627;28;19935;-37
2023/01/17 11:32:32;;;;;;;;;;;;;;;9.96;73.42;98574.13;5091022;28;19948;-36
2023/01/17 11:35:14;;;;;;;;;;;;;;;10.29;74.50;98570.94;5091305;28;20351;-37
2023/01/17 11:37:47;;;;;;;;;;;;;;;10.10;73.29;98561.44;5090970;28;19939;-37
2023/01/17 11:40:25;;;;;;;;;;;;;;;9.81;74.74;98549.84;5091290;28;20402;-35
2023/01/17 11:43:19;;;;;;;;;;;;;;;9.82;74.93;98557.56;5091355;28;19919;-37
2023/01/17 11:45:46;;;;;;;;;;;;;;;10.46;73.36;98571.09;5080219;28;19912;-36
2023/01/17 11:48:15;;;;;;;;;;;;;;;10.30;73.07;98558.44;5090909;28;19962;-36
2023/01/17 11:50:59;;;;;;;;;;;;;;;10.23;73.51;98573.72;5091372;28;19912;-36
2023/01/17 11:53:32;;;;;;;;;;;;;;;10.03;75.36;98566.84;5090949;28;19923;-37
2023/01/17 11:55:57;;;;;;;;;;;;;;;10.37;74.76;98554.66;5091197;28;20299;-36
2023/01/17 11:58:24;;;;;;;;;;;;;;;10.28;75.20;98561.34;5091056;28;20371;-34
2023/01/17 12:00:58;;;;;;;;;;;;;;;10.53;74.26;98560.34;5090977;28;20350;-36
2023/01/17 12:03:29;;;;;;;;;;;;;;;10.74;72.55;98564.28;5091205;28;19912;-36
2023/01/17 12:06:16;;;;;;;;;;;;;;;10.38;73.73;98563.47;5089430;28;19916;-37
2023/01/17 12:08:57;;;;;;;;;;;;;;;10.06;74.68;98552.31;5095830;28;20292;-43
2023/01/17 12:11:34;;;;;;;;;;;;;;;10.27;74.18;98524.34;5099846;28;19916;-42
2023/01/17 12:14:15;;;;;;;;;;;;;;;10.62;72.50;98542.97;5095272;28;19920;-43
2023/01/17 12:16:55;;;;;;;;;;;;;;;11.01;72.23;98529.16;5090411;28;19912;-43
2023/01/17 12:19:23;;;;;;;;;;;;;;;11.25;69.99;98525.38;5090313;28;19963;-43
2023/01/17 12:22:01;;;;;;;;;;;;;;;10.84;71.25;98507.78;5090720;28;19927;-43
2023/01/17 12:24:35;;;;;;;;;;;;;;;10.75;73.29;98512.66;5087840;28;20308;-44
2023/01/17 12:27:11;;;;;;;;;;;;;;;11.79;69.90;98525.00;5090136;28;19919;-43
2023/01/17 12:29:57;;;;;;;;;;;;;;;12.37;68.12;98532.88;5090668;28;20016;-43
2023/01/17 12:32:28;;;;;;;;;;;;;;;11.67;68.21;98526.91;5089900;28;19912;-44
2023/01/17 12:35:12;;;;;;;;;;;;;;;11.35;71.09;98522.91;5090563;28;20412;-44
2023/01/17 12:37:40;;;;;;;;;;;;;;;11.73;68.80;98516.13;5090278;28;19918;-43
2023/01/17 12:40:13;;;;;;;;;;;;;;;12.01;68.13;98514.44;5090649;28;19999;-42
2023/01/17 12:42:42;;;;;;;;;;;;;;;12.47;66.79;98520.50;5090357;28;19934;-43
2023/01/17 12:45:19;;;;;;;;;;;;;;;12.88;65.38;98521.00;5090166;28;19969;-44
2023/01/17 12:47:47;;;;;;;;;;;;;;;13.03;64.70;98495.56;5089316;28;20355;-43
2023/01/17 12:50:25;;;;;;;;;;;;;;;13.40;63.98;98524.28;5090779;28;20007;-43
2023/01/17 12:52:56;;;;;;;;;;;;;;;13.08;63.56;98508.97;5090921;28;20019;-43
2023/01/17 12:55:45;;;;;;;;;;;;;;;12.95;64.72;98506.69;5090708;28;19912;-43
2023/01/17 12:58:15;;;;;;;;;;;;;;;12.77;65.68;98500.56;5081069;28;20004;-44
2023/01/17 13:00:42;;;;;;;;;;;;;;;13.17;64.27;98506.66;5094164;28;19977;-43
2023/01/17 13:03:26;;;;;;;;;;;;;;;13.36;63.81;98499.16;5094369;28;19912;-43
2023/01/17 13:05:51;;;;;;;;;;;;;;;12.80;65.18;98496.63;5094617;28;19954;-44
2023/01/17 13:08:22;;;;;;;;;;;;;;;12.48;67.07;98474.06;5094436;28;20407;-43
2023/01/17 13:11:06;;;;;;;;;;;;;;;12.57;66.67;98487.00;5094517;28;19916;-43
2023/01/17 13:13:34;;;;;;;;;;;;;;;12.91;65.40;98474.34;5094222;28;19981;-43
2023/01/17 13:16:04;;;;;;;;;;;;;;;13.55;63.57;98495.06;5094196;28;19916;-45
2023/01/17 13:18:32;;;;;;;;;;;;;;;13.72;63.19;98508.31;5094717;28;19967;-44
2023/01/17 13:21:12;;;;;;;;;;;;;;;13.74;62.73;98510.72;5094233;28;19974;-44
2023/01/17 13:23:41;;;;;;;;;;;;;;;13.40;63.25;98513.59;5094107;28;19995;-45
2023/01/17 13:26:13;;;;;;;;;;;;;;;13.83;62.06;98514.56;5098108;28;19919;-43
2023/01/17 13:28:45;;;;;;;;;;;;;;;13.51;63.10;98507.31;5103195;28;19915;-44
2023/01/17 13:31:15;;;;;;;;;;;;;;;13.41;62.02;98512.56;5094033;28;20311;-44
2023/01/17 13:33:43;;;;;;;;;;;;;;;11.20;69.54;98493.31;5093893;28;19916;-44
2023/01/17 13:36:08;;;;;;;;;;;;;;;11.15;70.96;98502.00;5093738;28;19965;-43
2023/01/17 13:38:53;;;;;;;;;;;;;;;10.99;71.95;98499.31;5093283;28;20024;-43
2023/01/17 13:41:37;;;;;;;;;;;;;;;11.74;70.71;98499.06;5093252;28;19912;-43
2023/01/17 13:44:21;;;;;;;;;;;;;;;11.73;69.44;98494.00;5092814;28;19963;-43
2023/01/17 13:47:05;;;;;;;;;;;;;;;11.57;70.20;98486.78;5092064;28;19939;-43
2023/01/17 13:49:30;;;;;;;;;;;;;;;11.12;72.10;98499.03;5087134;28;19919;-43
2023/01/17 13:52:09;;;;;;;;;;;;;;;11.65;71.51;98499.69;5081811;28;19913;-43
2023/01/17 13:54:44;;;;;;;;;;;;;;;11.66;71.18;98507.47;5072277;28;19939;-43
2023/01/17 13:57:22;;;;;;;;;;;;;;;11.78;71.06;98504.72;5072670;28;19923;-43
2023/01/17 13:59:47;;;;;;;;;;;;;;;12.56;69.23;98501.38;5080196;28;19912;-43
2023/01/17 14:02:31;;;;;;;;;;;;;;;12.21;67.43;98489.97;5092335;28;19928;-43
2023/01/17 14:05:09;;;;;;;;;;;;;;;11.82;70.07;98502.38;5092915;28;20343;-43
2023/01/17 14:07:36;;;;;;;;;;;;;;;11.98;69.58;98490.97;5093290;28;20353;-43
2023/01/17 14:10:15;;;;;;;;;;;;;;;12.23;69.09;98497.72;5092732;28;19912;-44
2023/01/17 14:12:40;;;;;;;;;;;;;;;12.61;67.22;98520.13;5093013;28;20069;-42
2023/01/17 14:15:18;;;;;;;;;;;;;;;13.06;69.99;98516.41;5092946;28;20003;-43
2023/01/17 14:17:49;;;;;;;;;;;;;;;12.23;68.50;98487.84;5092937;28;20053;-42
2023/01/17 14:20:16;;;;;;;;;;;;;;;12.47;68.36;98517.00;5092844;28;19924;-45